createdAt,value
2022-12-27T00:00:14.083Z,101634.21
2022-12-27T00:02:41.042Z,101630.14
2022-12-27T00:05:09.634Z,101628.02
2022-12-27T00:07:37.244Z,101628.90
2022-12-27T00:10:05.987Z,101625.26
2022-12-27T00:12:32.717Z,101624.18
2022-12-27T00:14:59.490Z,101622.21
2022-12-27T00:17:26.195Z,101621.00
2022-12-27T00:19:52.967Z,101618.41
2022-12-27T00:22:19.850Z,101619.08
2022-12-27T00:24:47.797Z,101619.93
2022-12-27T00:27:14.675Z,101621.67
2022-12-27T00:29:41.405Z,101619.02
2022-12-27T00:32:08.253Z,101621.49
2022-12-27T00:34:35.639Z,101620.39
2022-12-27T00:37:02.245Z,101621.67
2022-12-27T00:39:28.885Z,101617.66
2022-12-27T00:41:55.470Z,101620.09
2022-12-27T00:44:22.157Z,101622.24
2022-12-27T00:46:48.932Z,101621.93
2022-12-27T00:49:15.689Z,101624.51
2022-12-27T00:51:42.441Z,101626.10
2022-12-27T00:54:09.844Z,101617.01
2022-12-27T00:56:36.417Z,101616.91
2022-12-27T00:59:05.374Z,101612.65
2022-12-27T01:01:36.196Z,101614.88
2022-12-27T01:04:04.352Z,101610.39
2022-12-27T01:06:33.037Z,101610.94
2022-12-27T01:09:01.576Z,101610.98
2022-12-27T01:11:29.494Z,101611.31
2022-12-27T01:14:01.737Z,101608.05
2022-12-27T01:16:31.794Z,101606.15
2022-12-27T01:18:59.947Z,101604.46
2022-12-27T01:21:29.015Z,101605.94
2022-12-27T01:23:56.156Z,101605.36
2022-12-27T01:26:24.162Z,101610.79
2022-12-27T01:28:52.245Z,101599.71
2022-12-27T01:31:22.298Z,101597.95
2022-12-27T01:33:49.377Z,101599.65
2022-12-27T01:36:20.422Z,101602.19
2022-12-27T01:38:48.739Z,101602.70
2022-12-27T01:41:37.766Z,101601.82
2022-12-27T01:44:49.553Z,101604.64
2022-12-27T01:47:25.662Z,101603.97
2022-12-27T01:50:11.887Z,101605.46
2022-12-27T01:52:45.930Z,101606.48
2022-12-27T01:55:49.031Z,101606.44
2022-12-27T01:58:35.661Z,101597.83
2022-12-27T02:01:02.860Z,101595.54
2022-12-27T02:03:35.119Z,101595.42
2022-12-27T02:06:04.532Z,101590.95
2022-12-27T02:08:37.627Z,101591.91
2022-12-27T02:11:07.541Z,101592.98
2022-12-27T02:13:38.350Z,101589.92
2022-12-27T02:16:17.506Z,101592.33
2022-12-27T02:18:46.507Z,101588.27
2022-12-27T02:21:40.688Z,101586.48
2022-12-27T02:24:36.702Z,101587.29
2022-12-27T02:27:15.807Z,101586.78
2022-12-27T02:30:01.147Z,101585.04
2022-12-27T02:32:37.837Z,101580.77
2022-12-27T02:35:04.529Z,101584.74
2022-12-27T02:37:34.158Z,101586.80
2022-12-27T02:40:23.627Z,101588.50
2022-12-27T02:43:10.643Z,101592.35
2022-12-27T02:46:03.595Z,101595.59
2022-12-27T02:48:49.058Z,101595.36
2022-12-27T02:52:02.617Z,101596.48
2022-12-27T02:54:42.569Z,101601.71
2022-12-27T02:57:27.965Z,101600.58
2022-12-27T03:00:23.629Z,101590.31
2022-12-27T03:03:15.093Z,101592.16
2022-12-27T03:06:22.355Z,101592.95
2022-12-27T03:08:54.943Z,101598.11
2022-12-27T03:11:41.495Z,101592.23
2022-12-27T03:14:32.428Z,101591.70
2022-12-27T03:17:05.870Z,101585.79
2022-12-27T03:20:03.005Z,101587.02
2022-12-27T03:22:51.770Z,101590.23
2022-12-27T03:25:31.272Z,101589.08
2022-12-27T03:28:24.985Z,101586.21
2022-12-27T03:31:17.085Z,101593.23
2022-12-27T03:33:47.549Z,101592.08
2022-12-27T03:36:40.149Z,101593.75
2022-12-27T03:39:16.569Z,101586.11
2022-12-27T03:42:11.182Z,101582.77
2022-12-27T03:44:38.715Z,101582.32
2022-12-27T03:47:10.556Z,101586.86
2022-12-27T03:49:53.826Z,101590.82
2022-12-27T03:52:58.941Z,101590.07
2022-12-27T03:55:31.522Z,101593.88
2022-12-27T03:58:00.229Z,101590.45
2022-12-27T04:00:26.979Z,101589.11
2022-12-27T04:02:53.903Z,101586.67
2022-12-27T04:05:20.718Z,101585.73
2022-12-27T04:08:06.151Z,101589.06
2022-12-27T04:10:51.611Z,101591.61
2022-12-27T04:13:36.891Z,101591.02
2022-12-27T04:16:22.491Z,101592.66
2022-12-27T04:19:08.056Z,101594.90
2022-12-27T04:21:53.395Z,101590.60
2022-12-27T04:24:39.595Z,101594.77
2022-12-27T04:27:25.116Z,101593.35
2022-12-27T04:30:10.536Z,101589.92
2022-12-27T04:32:56.117Z,101586.05
2022-12-27T04:35:22.816Z,101593.46
2022-12-27T04:37:49.539Z,101586.76
2022-12-27T04:40:35.155Z,101587.38
2022-12-27T04:43:20.682Z,101587.53
2022-12-27T04:46:06.143Z,101589.88
2022-12-27T04:48:51.613Z,101591.48
2022-12-27T04:51:36.812Z,101587.36
2022-12-27T04:54:21.942Z,101589.27
2022-12-27T04:56:48.670Z,101585.77
2022-12-27T04:59:34.286Z,101589.91
2022-12-27T05:02:03.862Z,101591.28
2022-12-27T05:04:32.923Z,101592.30
2022-12-27T05:07:20.451Z,101595.66
2022-12-27T05:10:06.040Z,101600.02
2022-12-27T05:12:51.595Z,101599.01
2022-12-27T05:15:18.886Z,101597.88
2022-12-27T05:17:45.604Z,101597.76
2022-12-27T05:20:12.378Z,101598.84
2022-12-27T05:22:57.694Z,101602.61
2022-12-27T05:25:37.889Z,101600.20
2022-12-27T05:28:07.009Z,101600.70
2022-12-27T05:30:37.826Z,101601.04
2022-12-27T05:33:05.376Z,101594.13
2022-12-27T05:35:32.328Z,101598.71
2022-12-27T05:37:59.285Z,101600.84
2022-12-27T05:40:26.322Z,101604.99
2022-12-27T05:42:53.114Z,101607.14
2022-12-27T05:45:20.523Z,101609.95
2022-12-27T05:47:47.986Z,101608.54
2022-12-27T05:50:14.721Z,101610.48
2022-12-27T05:52:41.973Z,101608.84
2022-12-27T05:55:09.465Z,101612.75
2022-12-27T05:57:36.454Z,101618.45
2022-12-27T06:00:05.496Z,101616.78
2022-12-27T06:02:40.030Z,101618.88
2022-12-27T06:05:07.305Z,101616.21
2022-12-27T06:07:36.955Z,101615.54
2022-12-27T06:10:06.139Z,101614.63
2022-12-27T06:12:32.853Z,101617.84
2022-12-27T06:14:59.519Z,101621.38
2022-12-27T06:17:26.269Z,101620.86
2022-12-27T06:19:57.083Z,101625.65
2022-12-27T06:22:25.003Z,101631.21
2022-12-27T06:24:51.754Z,101639.52
2022-12-27T06:27:18.504Z,101642.56
2022-12-27T06:29:45.270Z,101651.80
2022-12-27T06:32:11.948Z,101650.14
2022-12-27T06:34:38.701Z,101648.41
2022-12-27T06:37:05.438Z,101652.27
2022-12-27T06:39:32.195Z,101651.30
2022-12-27T06:41:58.921Z,101654.15
2022-12-27T06:44:26.496Z,101655.27
2022-12-27T06:46:53.234Z,101655.25
2022-12-27T06:49:19.928Z,101665.38
2022-12-27T06:51:52.543Z,101664.00
2022-12-27T06:54:22.695Z,101673.89
2022-12-27T06:56:49.503Z,101673.98
2022-12-27T06:59:16.245Z,101675.11
2022-12-27T07:01:43.304Z,101683.79
2022-12-27T07:04:10.542Z,101683.67
2022-12-27T07:06:38.490Z,101686.77
2022-12-27T07:09:06.063Z,101688.31
2022-12-27T07:11:34.513Z,101694.05
2022-12-27T07:14:02.088Z,101697.17
2022-12-27T07:16:30.122Z,101697.48
2022-12-27T07:18:58.827Z,101693.52
2022-12-27T07:21:28.205Z,101696.08
2022-12-27T07:23:55.706Z,101701.11
2022-12-27T07:26:30.082Z,101702.80
2022-12-27T07:29:00.254Z,101705.02
2022-12-27T07:31:29.934Z,101713.18
2022-12-27T07:33:58.082Z,101721.30
2022-12-27T07:36:28.593Z,101719.38
2022-12-27T07:38:55.461Z,101718.98
2022-12-27T07:41:22.233Z,101716.30
2022-12-27T07:43:49.002Z,101718.43
2022-12-27T07:46:26.152Z,101726.33
2022-12-27T07:48:55.477Z,101733.73
2022-12-27T07:51:22.949Z,101733.71
2022-12-27T07:53:51.227Z,101736.66
2022-12-27T07:56:26.427Z,101739.21
2022-12-27T07:58:55.999Z,101740.91
2022-12-27T08:01:24.732Z,101739.50
2022-12-27T08:03:51.677Z,101739.56
2022-12-27T08:06:27.212Z,101743.85
2022-12-27T08:08:55.832Z,101743.83
2022-12-27T08:11:23.301Z,101741.64
2022-12-27T08:13:50.056Z,101745.16
2022-12-27T08:16:20.065Z,101744.30
2022-12-27T08:18:47.147Z,101744.06
2022-12-27T08:21:15.775Z,101748.52
2022-12-27T08:23:42.922Z,101753.02
2022-12-27T08:26:10.285Z,101756.12
2022-12-27T08:28:37.770Z,101758.23
2022-12-27T08:31:09.218Z,101759.95
2022-12-27T08:33:37.296Z,101759.04
2022-12-27T08:36:28.607Z,101760.78
2022-12-27T08:38:55.067Z,101763.58
2022-12-27T08:41:22.657Z,101764.98
2022-12-27T08:43:49.431Z,101770.73
2022-12-27T08:46:16.255Z,101776.37
2022-12-27T08:48:43.600Z,101780.90
2022-12-27T08:51:13.194Z,101784.10
2022-12-27T08:53:42.283Z,101786.31
2022-12-27T08:56:09.181Z,101785.48
2022-12-27T08:58:36.223Z,101789.14
2022-12-27T09:01:07.854Z,101792.73
2022-12-27T09:03:34.731Z,101794.69
2022-12-27T09:06:13.005Z,101798.56
2022-12-27T09:08:39.750Z,101798.97
2022-12-27T09:11:15.844Z,101805.02
2022-12-27T09:13:42.642Z,101801.83
2022-12-27T09:16:12.706Z,101802.02
2022-12-27T09:18:39.961Z,101801.27
2022-12-27T09:21:09.766Z,101805.03
2022-12-27T09:23:37.391Z,101805.02
2022-12-27T09:26:15.930Z,101808.02
2022-12-27T09:28:43.317Z,101806.52
2022-12-27T09:31:11.926Z,101804.31
2022-12-27T09:33:39.554Z,101811.11
2022-12-27T09:36:15.176Z,101808.94
2022-12-27T09:38:43.256Z,101808.65
2022-12-27T09:44:40.542Z,101812.45
2022-12-27T09:47:27.136Z,101810.75
2022-12-27T09:49:59.169Z,101813.42
2022-12-27T09:52:40.899Z,101815.23
2022-12-27T09:55:34.509Z,101816.05
2022-12-27T09:58:35.046Z,101814.90
2022-12-27T10:01:03.069Z,101805.73
2022-12-27T10:03:31.024Z,101795.73
2022-12-27T10:06:21.612Z,101798.83
2022-12-27T10:09:02.091Z,101800.65
2022-12-27T10:11:40.200Z,101797.23
2022-12-27T10:14:29.935Z,101797.39
2022-12-27T10:17:10.745Z,101796.67
2022-12-27T10:20:08.303Z,101796.02
2022-12-27T10:22:41.402Z,101789.42
2022-12-27T10:25:18.701Z,101789.91
2022-12-27T10:27:47.488Z,101785.23
2022-12-27T10:30:17.654Z,101785.52
2022-12-27T10:32:44.969Z,101786.30
2022-12-27T10:35:16.522Z,101785.89
2022-12-27T10:37:44.584Z,101788.10
2022-12-27T10:40:50.402Z,101783.38
2022-12-27T10:43:21.165Z,101781.58
2022-12-27T10:45:48.629Z,101778.81
2022-12-27T10:48:16.417Z,101784.35
2022-12-27T10:51:01.112Z,101779.07
2022-12-27T10:53:40.377Z,101773.83
2022-12-27T10:56:32.464Z,101767.19
2022-12-27T10:59:29.189Z,101764.33
2022-12-27T11:02:01.901Z,101757.86
2022-12-27T11:04:31.074Z,101758.83
2022-12-27T11:07:00.018Z,101759.84
2022-12-27T11:09:31.445Z,101761.89
2022-12-27T11:12:18.024Z,101757.02
2022-12-27T11:15:17.726Z,101753.20
2022-12-27T11:17:51.550Z,101749.69
2022-12-27T11:20:29.140Z,101751.98
2022-12-27T11:22:57.511Z,101755.48
2022-12-27T11:25:26.545Z,101750.33
2022-12-27T11:28:06.477Z,101753.81
2022-12-27T11:30:40.354Z,101752.54
2022-12-27T11:33:24.577Z,101745.41
2022-12-27T11:35:56.049Z,101744.77
2022-12-27T11:38:26.512Z,101744.39
2022-12-27T11:41:11.365Z,101745.74
2022-12-27T11:44:10.859Z,101737.30
2022-12-27T11:46:58.726Z,101736.58
2022-12-27T11:49:33.320Z,101732.89
2022-12-27T11:52:24.645Z,101728.30
2022-12-27T11:55:21.466Z,101722.19
2022-12-27T11:58:12.827Z,101723.21
2022-12-27T12:01:15.762Z,101722.15
2022-12-27T12:03:52.459Z,101722.86
2022-12-27T12:06:40.780Z,101723.90
2022-12-27T12:09:31.293Z,101726.06
2022-12-27T12:12:39.393Z,101722.63
2022-12-27T12:15:20.930Z,101720.19
2022-12-27T12:17:50.349Z,101717.69
2022-12-27T12:20:45.706Z,101710.59
2022-12-27T12:24:06.860Z,101708.38
2022-12-27T12:26:55.965Z,101704.73
2022-12-27T12:29:28.969Z,101702.50
2022-12-27T12:32:32.301Z,101698.23
2022-12-27T12:35:29.320Z,101700.18
2022-12-27T12:38:20.161Z,101698.39
2022-12-27T12:41:00.601Z,101699.54
2022-12-27T12:43:39.345Z,101699.27
2022-12-27T12:46:17.942Z,101699.33
2022-12-27T12:48:47.230Z,101697.77
2022-12-27T12:51:25.657Z,101697.80
2022-12-27T12:54:30.283Z,101693.21
2022-12-27T12:57:21.038Z,101696.89
2022-12-27T13:00:13.731Z,101695.42
2022-12-27T13:03:07.119Z,101694.38
2022-12-27T13:05:49.219Z,101694.05
2022-12-27T13:08:39.820Z,101693.92
2022-12-27T13:11:34.682Z,101686.47
2022-12-27T13:14:16.979Z,101684.98
2022-12-27T13:17:01.173Z,101682.11
2022-12-27T13:19:43.214Z,101679.85
2022-12-27T13:22:21.247Z,101679.20
2022-12-27T13:24:51.163Z,101678.81
2022-12-27T13:27:36.726Z,101676.92
2022-12-27T13:30:18.685Z,101672.04
2022-12-27T13:33:04.069Z,101672.48
2022-12-27T13:35:54.053Z,101670.10
2022-12-27T13:38:56.073Z,101672.08
2022-12-27T13:41:31.009Z,101669.39
2022-12-27T13:44:19.561Z,101668.77
2022-12-27T13:46:54.373Z,101669.85
2022-12-27T13:49:53.688Z,101668.60
2022-12-27T13:52:39.824Z,101675.85
2022-12-27T13:55:25.013Z,101677.94
2022-12-27T13:58:22.952Z,101681.20
2022-12-27T14:01:15.849Z,101681.32
2022-12-27T14:04:05.689Z,101679.98
2022-12-27T14:06:35.388Z,101680.93
2022-12-27T14:09:23.812Z,101685.42
2022-12-27T14:12:37.061Z,101684.85
2022-12-27T14:15:07.087Z,101684.04
2022-12-27T14:17:39.527Z,101685.09
2022-12-27T14:20:38.655Z,101689.57
2022-12-27T14:23:24.822Z,101694.08
2022-12-27T14:26:29.224Z,101695.98
2022-12-27T14:29:23.931Z,101703.02
2022-12-27T14:32:10.580Z,101705.76
2022-12-27T14:35:16.406Z,101710.22
2022-12-27T14:38:09.237Z,101712.02
2022-12-27T14:40:54.841Z,101712.73
2022-12-27T14:43:21.408Z,101720.56
2022-12-27T14:46:23.297Z,101725.08
2022-12-27T14:49:23.804Z,101728.80
2022-12-27T14:52:12.044Z,101725.34
2022-12-27T14:54:39.289Z,101727.64
2022-12-27T14:57:14.947Z,101728.35
2022-12-27T14:59:50.450Z,101728.42
2022-12-27T15:02:33.306Z,101728.04
2022-12-27T15:05:29.523Z,101729.73
2022-12-27T15:08:21.009Z,101728.77
2022-12-27T15:11:35.565Z,101731.42
2022-12-27T15:14:23.618Z,101733.55
2022-12-27T15:17:17.481Z,101734.45
2022-12-27T15:20:14.027Z,101733.15
2022-12-27T15:22:46.508Z,101737.69
2022-12-27T15:25:20.141Z,101741.11
2022-12-27T15:27:53.479Z,101741.55
2022-12-27T15:30:31.215Z,101742.55
2022-12-27T15:33:18.805Z,101747.54
2022-12-27T15:36:14.474Z,101754.93
2022-12-27T15:38:52.978Z,101757.87
2022-12-27T15:41:34.349Z,101765.45
2022-12-27T15:44:19.132Z,101770.40
2022-12-27T15:47:14.708Z,101774.74
2022-12-27T15:49:55.175Z,101774.95
2022-12-27T15:52:24.869Z,101781.56
2022-12-27T15:55:00.867Z,101784.20
2022-12-27T15:57:46.587Z,101784.25
2022-12-27T16:00:17.152Z,101784.89
2022-12-27T16:02:44.201Z,101782.98
2022-12-27T16:05:22.979Z,101779.89
2022-12-27T16:07:59.040Z,101776.05
2022-12-27T16:10:35.290Z,101780.80
2022-12-27T16:13:42.814Z,101784.29
2022-12-27T16:16:33.442Z,101781.94
2022-12-27T16:19:22.426Z,101782.40
2022-12-27T16:21:49.521Z,101782.29
2022-12-27T16:24:20.660Z,101783.06
2022-12-27T16:26:56.369Z,101786.23
2022-12-27T16:29:32.645Z,101788.88
2022-12-27T16:32:31.824Z,101789.38
2022-12-27T16:35:15.734Z,101787.84
2022-12-27T16:37:52.870Z,101795.88
2022-12-27T16:40:44.187Z,101799.19
2022-12-27T16:43:10.827Z,101802.08
2022-12-27T16:45:58.864Z,101810.34
2022-12-27T16:48:52.301Z,101813.29
2022-12-27T16:51:41.491Z,101807.55
2022-12-27T16:54:38.978Z,101803.65
2022-12-27T16:57:23.947Z,101797.43
2022-12-27T17:00:23.238Z,101793.95
2022-12-27T17:02:50.347Z,101797.83
2022-12-27T17:05:17.019Z,101804.20
2022-12-27T17:07:52.768Z,101809.98
2022-12-27T17:10:28.789Z,101816.08
2022-12-27T17:13:17.722Z,101815.97
2022-12-27T17:16:00.995Z,101817.38
2022-12-27T17:18:48.766Z,101817.91
2022-12-27T17:21:32.920Z,101820.02
2022-12-27T17:24:26.165Z,101821.47
2022-12-27T17:27:07.922Z,101825.08
2022-12-27T17:29:55.132Z,101822.89
2022-12-27T17:32:55.814Z,101821.89
2022-12-27T17:35:32.091Z,101822.71
2022-12-27T17:38:29.971Z,101824.56
2022-12-27T17:40:59.424Z,101830.23
2022-12-27T17:44:21.836Z,101834.20
2022-12-27T17:46:56.593Z,101835.19
2022-12-27T17:49:32.357Z,101834.45
2022-12-27T17:52:19.996Z,101833.54
2022-12-27T17:55:05.262Z,101833.60
2022-12-27T17:57:50.813Z,101830.95
2022-12-27T18:00:31.249Z,101832.41
2022-12-27T18:03:02.329Z,101831.52
2022-12-27T18:05:32.754Z,101829.41
2022-12-27T18:08:02.710Z,101823.59
2022-12-27T18:10:31.732Z,101828.66
2022-12-27T18:13:01.627Z,101830.29
2022-12-27T18:15:34.081Z,101834.82
2022-12-27T18:18:04.843Z,101834.52
2022-12-27T18:20:36.168Z,101835.47
2022-12-27T18:23:02.940Z,101830.61
2022-12-27T18:25:42.047Z,101829.86
2022-12-27T18:28:32.552Z,101825.64
2022-12-27T18:31:11.360Z,101821.36
2022-12-27T18:33:53.218Z,101819.97
2022-12-27T18:36:31.940Z,101819.98
2022-12-27T18:39:13.321Z,101824.43
2022-12-27T18:41:52.559Z,101828.51
2022-12-27T18:44:27.082Z,101831.58
2022-12-27T18:46:58.483Z,101833.95
2022-12-27T18:49:30.697Z,101835.13
2022-12-27T18:51:58.001Z,101836.52
2022-12-27T18:54:35.106Z,101835.08
2022-12-27T18:57:04.836Z,101838.00
2022-12-27T18:59:36.174Z,101838.89
2022-12-27T19:02:24.679Z,101841.00
2022-12-27T19:05:22.495Z,101839.41
2022-12-27T19:07:50.913Z,101836.92
2022-12-27T19:10:20.142Z,101834.52
2022-12-27T19:12:47.708Z,101835.18
2022-12-27T19:15:20.189Z,101834.55
2022-12-27T19:17:50.449Z,101833.80
2022-12-27T19:20:23.733Z,101829.97
2022-12-27T19:22:55.309Z,101835.00
2022-12-27T19:25:22.007Z,101834.52
2022-12-27T19:28:04.803Z,101835.13
2022-12-27T19:30:41.419Z,101834.12
2022-12-27T19:33:25.229Z,101839.01
2022-12-27T19:35:53.172Z,101848.23
2022-12-27T19:38:32.106Z,101841.98
2022-12-27T19:41:03.817Z,101843.09
2022-12-27T19:43:38.113Z,101842.55
2022-12-27T19:46:04.899Z,101849.83
2022-12-27T19:48:31.530Z,101853.15
2022-12-27T19:50:59.000Z,101856.49
2022-12-27T19:53:38.503Z,101858.17
2022-12-27T19:56:08.090Z,101853.88
2022-12-27T19:58:35.322Z,101855.48
2022-12-27T20:01:02.481Z,101857.11
2022-12-27T20:03:29.619Z,101861.45
2022-12-27T20:06:14.530Z,101858.77
2022-12-27T20:08:44.779Z,101856.48
2022-12-27T20:11:19.917Z,101852.35
2022-12-27T20:13:47.977Z,101851.41
2022-12-27T20:16:17.865Z,101853.30
2022-12-27T20:18:45.156Z,101850.19
2022-12-27T20:21:17.374Z,101857.16
2022-12-27T20:23:44.989Z,101859.17
2022-12-27T20:26:14.576Z,101859.02
2022-12-27T20:28:41.272Z,101859.74
2022-12-27T20:31:10.252Z,101858.48
2022-12-27T20:33:37.234Z,101859.83
2022-12-27T20:36:05.079Z,101865.48
2022-12-27T20:38:32.316Z,101871.41
2022-12-27T20:41:12.876Z,101876.39
2022-12-27T20:43:40.444Z,101878.96
2022-12-27T20:46:15.984Z,101879.64
2022-12-27T20:48:44.459Z,101878.94
2022-12-27T20:51:19.463Z,101882.10
2022-12-27T20:53:49.152Z,101880.26
2022-12-27T20:56:16.862Z,101880.73
2022-12-27T20:58:43.677Z,101877.36
2022-12-27T21:01:25.582Z,101879.33
2022-12-27T21:03:55.967Z,101882.52
2022-12-27T21:06:26.010Z,101887.88
2022-12-27T21:08:57.387Z,101884.71
2022-12-27T21:11:31.471Z,101884.57
2022-12-27T21:14:00.248Z,101884.66
2022-12-27T21:16:29.230Z,101884.33
2022-12-27T21:18:56.995Z,101885.36
2022-12-27T21:21:28.692Z,101887.35
2022-12-27T21:23:57.998Z,101886.13
2022-12-27T21:26:31.285Z,101888.27
2022-12-27T21:28:59.809Z,101888.66
2022-12-27T21:31:26.951Z,101885.48
2022-12-27T21:33:53.901Z,101884.92
2022-12-27T21:36:24.704Z,101878.97
2022-12-27T21:38:52.709Z,101881.66
2022-12-27T21:41:28.775Z,101884.07
2022-12-27T21:43:55.537Z,101884.03
2022-12-27T21:46:28.475Z,101886.33
2022-12-27T21:48:58.458Z,101876.88
2022-12-27T21:51:26.825Z,101878.61
2022-12-27T21:53:53.841Z,101877.36
2022-12-27T21:56:21.501Z,101875.20
2022-12-27T21:58:48.564Z,101883.95
2022-12-27T22:01:18.522Z,101888.09
2022-12-27T22:03:47.868Z,101891.13
2022-12-27T22:06:19.300Z,101892.05
2022-12-27T22:08:48.609Z,101893.06
2022-12-27T22:11:16.294Z,101901.48
2022-12-27T22:13:43.528Z,101907.88
2022-12-27T22:16:16.565Z,101918.52
2022-12-27T22:18:45.115Z,101919.46
2022-12-27T22:21:15.042Z,101919.30
2022-12-27T22:23:44.116Z,101915.95
2022-12-27T22:26:13.619Z,101920.67
2022-12-27T22:28:41.391Z,101918.71
2022-12-27T22:31:14.736Z,101918.20
2022-12-27T22:33:41.523Z,101920.66
2022-12-27T22:36:17.060Z,101921.35
2022-12-27T22:38:49.147Z,101920.08
2022-12-27T22:41:19.093Z,101912.16
2022-12-27T22:43:56.949Z,101914.77
2022-12-27T22:46:24.912Z,101913.84
2022-12-27T22:48:53.709Z,101916.13
2022-12-27T22:51:26.710Z,101918.56
2022-12-27T22:53:54.993Z,101917.78
2022-12-27T22:56:24.195Z,101914.70
2022-12-27T22:58:51.148Z,101914.08
2022-12-27T23:01:21.274Z,101915.27
2022-12-27T23:03:48.586Z,101912.30
2022-12-27T23:06:16.455Z,101915.89
2022-12-27T23:08:44.211Z,101910.94
2022-12-27T23:11:19.695Z,101908.56
2022-12-27T23:13:47.660Z,101910.98
2022-12-27T23:16:14.965Z,101905.95
2022-12-27T23:18:41.980Z,101902.56
2022-12-27T23:21:21.046Z,101899.72
2022-12-27T23:23:52.040Z,101900.23
2022-12-27T23:26:22.351Z,101893.09
2022-12-27T23:28:50.479Z,101888.02
2022-12-27T23:31:18.439Z,101883.14
2022-12-27T23:33:45.409Z,101880.08
2022-12-27T23:36:13.356Z,101880.38
2022-12-27T23:38:41.787Z,101882.61
2022-12-27T23:41:11.310Z,101877.27
2022-12-27T23:43:52.134Z,101878.01
2022-12-27T23:46:23.844Z,101877.77
2022-12-27T23:48:51.854Z,101876.63
2022-12-27T23:51:19.319Z,101871.63
2022-12-27T23:53:46.316Z,101873.19
2022-12-27T23:56:25.178Z,101871.65
2022-12-27T23:58:55.376Z,101866.23
